Time;durP1;ratioP1;P1;durP2;ratioP2;P2;SDS_P1;SDS_P2;PMS_P1;PMS_P2;Temp;Humidity;BMP_temperature;BMP_pressure;BME280_temperature;BME280_humidity;BME280_pressure;Samples;Min_cycle;Max_cycle;Signal;HPM_P1;HPM_P2
2023/03/25 00:00:14;;;;;;;11.50;2.55;;;;;;;7.94;100.00;100183.00;6276437;22;20015;-77
2023/03/25 00:02:41;;;;;;;8.63;1.75;;;;;;;7.93;100.00;100178.78;6276898;22;20003;-72
2023/03/25 00:05:06;;;;;;;7.70;2.60;;;;;;;7.98;100.00;100205.88;6276339;22;20004;-78
2023/03/25 00:07:32;;;;;;;9.75;2.15;;;;;;;8.00;100.00;100198.88;6276277;22;20003;-78
2023/03/25 00:09:57;;;;;;;8.43;1.92;;;;;;;7.91;100.00;100190.91;6276430;22;20038;-78
2023/03/25 00:12:23;;;;;;;7.95;2.15;;;;;;;8.03;100.00;100213.28;6277090;22;20354;-77
2023/03/25 00:14:53;;;;;;;7.70;2.22;;;;;;;8.10;100.00;100196.56;6276595;22;19999;-77
2023/03/25 00:17:22;;;;;;;6.28;1.55;;;;;;;8.13;100.00;100206.66;6276570;22;20053;-76
2023/03/25 00:19:50;;;;;;;7.40;1.65;;;;;;;8.14;100.00;100210.03;6276648;22;20026;-77
2023/03/25 00:22:19;;;;;;;8.45;2.05;;;;;;;8.06;100.00;100195.09;6276694;22;20332;-75
2023/03/25 00:24:45;;;;;;;11.80;2.58;;;;;;;8.21;99.70;100207.00;6276505;22;19999;-76
2023/03/25 00:27:10;;;;;;;6.85;2.05;;;;;;;8.20;99.63;100214.81;6276654;22;20053;-76
2023/03/25 00:29:35;;;;;;;7.13;2.00;;;;;;;8.19;99.02;100198.56;6276803;22;20007;-78
2023/03/25 00:32:02;;;;;;;9.80;1.73;;;;;;;8.20;98.97;100209.66;6276918;22;20019;-78
2023/03/25 00:34:27;;;;;;;8.98;2.00;;;;;;;8.17;98.28;100199.59;6276805;22;20053;-73
2023/03/25 00:36:52;;;;;;;8.77;2.13;;;;;;;8.22;98.45;100200.94;6248430;22;20016;-75
2023/03/25 00:39:18;;;;;;;10.52;2.05;;;;;;;7.94;97.42;100160.69;6276748;22;20062;-78
2023/03/25 00:41:43;;;;;;;7.85;1.88;;;;;;;8.22;97.59;100200.09;6276811;22;20100;-77
2023/03/25 00:44:16;;;;;;;10.05;2.47;;;;;;;8.21;97.63;100207.00;6276780;22;19999;-77
2023/03/25 00:46:41;;;;;;;5.65;1.83;;;;;;;8.21;97.11;100211.31;6276210;22;20053;-76
2023/03/25 00:49:08;;;;;;;6.28;1.80;;;;;;;8.07;97.71;100180.50;6276201;22;20011;-75
2023/03/25 00:51:34;;;;;;;11.43;3.28;;;;;;;8.18;97.29;100208.94;6276510;22;20008;-72
2023/03/25 00:53:59;;;;;;;6.72;1.75;;;;;;;8.16;97.18;100213.34;6276461;22;20417;-73
2023/03/25 00:56:25;;;;;;;8.32;1.90;;;;;;;8.04;97.12;100190.03;6276853;22;20000;-75
2023/03/25 00:58:51;;;;;;;10.70;2.25;;;;;;;8.13;97.06;100203.25;6276734;22;20336;-77
2023/03/25 01:01:22;;;;;;;8.43;2.10;;;;;;;8.04;96.66;100196.94;6276174;22;20004;-78
2023/03/25 01:03:48;;;;;;;7.72;2.20;;;;;;;8.12;97.46;100219.59;6276544;22;20003;-76
2023/03/25 01:06:16;;;;;;;5.28;1.77;;;;;;;7.97;96.98;100185.41;6276682;22;20049;-77
2023/03/25 01:08:43;;;;;;;7.25;2.05;;;;;;;8.07;97.13;100214.75;6276446;22;20018;-77
2023/03/25 01:11:19;;;;;;;9.73;2.60;;;;;;;8.07;97.44;100212.19;6276678;22;20050;-77
2023/03/25 01:13:44;;;;;;;7.70;2.15;;;;;;;7.87;97.69;100174.88;6276575;22;20000;-77
2023/03/25 01:16:11;;;;;;;9.95;2.05;;;;;;;8.02;97.95;100209.88;6276424;22;20054;-77
2023/03/25 01:18:37;;;;;;;8.27;2.55;;;;;;;7.85;99.49;100184.38;6277309;22;20000;-78
2023/03/25 01:21:06;;;;;;;7.97;1.95;;;;;;;7.96;99.96;100210.28;6278359;22;20007;-75
2023/03/25 01:23:32;;;;;;;8.63;2.10;;;;;;;7.79;99.85;100194.25;6278671;22;20003;-77
2023/03/25 01:25:58;;;;;;;10.30;2.35;;;;;;;7.96;100.00;100217.16;6278470;22;20056;-77
2023/03/25 01:28:24;;;;;;;7.03;2.03;;;;;;;7.98;99.68;100197.34;6278140;22;20417;-77
2023/03/25 01:30:49;;;;;;;7.18;1.88;;;;;;;7.92;99.87;100202.84;6278424;22;20003;-78
2023/03/25 01:33:15;;;;;;;7.38;2.33;;;;;;;7.96;100.00;100212.84;6277874;22;20348;-78
2023/03/25 01:35:40;;;;;;;7.38;2.05;;;;;;;7.95;100.00;100216.31;6277837;22;20008;-77
2023/03/25 01:38:06;;;;;;;7.03;2.30;;;;;;;7.76;100.00;100185.78;6278049;22;20004;-75
2023/03/25 01:40:32;;;;;;;9.45;2.30;;;;;;;7.70;100.00;100177.63;6250782;22;20440;-74
2023/03/25 01:42:57;;;;;;;10.35;2.20;;;;;;;7.75;100.00;100209.00;6277939;22;20003;-77
2023/03/25 01:45:27;;;;;;;8.77;2.10;;;;;;;7.71;100.00;100208.38;6278136;22;20031;-75
2023/03/25 01:48:01;;;;;;;9.15;2.58;;;;;;;7.41;100.00;100162.25;6250761;22;19999;-75
2023/03/25 01:50:28;;;;;;;8.43;2.65;;;;;;;7.70;100.00;100211.06;6277944;22;20011;-73
2023/03/25 01:52:56;;;;;;;9.20;2.78;;;;;;;7.52;100.00;100186.47;6277771;22;20014;-77
2023/03/25 01:55:22;;;;;;;7.43;1.88;;;;;;;7.57;100.00;100200.69;6277765;22;20034;-76
2023/03/25 01:57:53;;;;;;;8.38;2.22;;;;;;;7.54;100.00;100206.00;6277882;22;20003;-78
2023/03/25 02:00:19;;;;;;;8.20;2.00;;;;;;;7.38;100.00;100182.16;6278140;22;20014;-78
2023/03/25 02:02:49;;;;;;;7.32;2.05;;;;;;;7.47;100.00;100197.84;6277742;22;20030;-75
2023/03/25 02:05:24;;;;;;;7.65;2.10;;;;;;;7.30;100.00;100174.09;6277573;22;20000;-77
2023/03/25 02:07:49;;;;;;;8.90;2.30;;;;;;;7.33;100.00;100195.28;6277619;22;20038;-77
2023/03/25 02:10:15;;;;;;;6.63;1.95;;;;;;;7.30;100.00;100192.91;6277797;22;20289;-78
2023/03/25 02:12:44;;;;;;;6.55;2.17;;;;;;;7.31;100.00;100191.16;6301175;22;20007;-78
2023/03/25 02:15:11;;;;;;;7.03;2.25;;;;;;;7.32;100.00;100191.06;6277863;22;20010;-77
2023/03/25 02:18:09;;;;;;;8.27;2.00;;;;;;;7.34;100.00;100199.50;6277971;22;19999;-77
2023/03/25 02:20:53;;;;;;;5.38;1.77;;;;;;;7.34;100.00;100185.81;6277596;22;20015;-77
2023/03/25 02:23:41;;;;;;;7.03;2.65;;;;;;;7.31;100.00;100183.44;6277474;22;20043;-73
2023/03/25 02:26:36;;;;;;;4.88;1.90;;;;;;;7.32;100.00;100188.50;6277240;22;20011;-76
2023/03/25 02:29:04;;;;;;;7.82;1.90;;;;;;;7.32;100.00;100188.50;6277229;22;20084;-77
2023/03/25 02:32:01;;;;;;;6.68;1.98;;;;;;;7.27;100.00;100184.53;6250248;22;20375;-77
2023/03/25 02:34:41;;;;;;;11.02;2.70;;;;;;;7.07;100.00;100173.69;6277318;22;20120;-76
2023/03/25 02:37:32;;;;;;;7.78;2.53;;;;;;;7.11;100.00;100187.19;6277288;22;20039;-74
2023/03/25 02:40:07;;;;;;;8.40;2.30;;;;;;;7.03;100.00;100185.06;6277728;22;20008;-75
2023/03/25 02:42:41;;;;;;;8.93;2.75;;;;;;;7.00;100.00;100185.25;6277589;22;20050;-74
2023/03/25 02:45:09;;;;;;;8.90;2.67;;;;;;;6.99;100.00;100178.47;6277609;22;20007;-74
2023/03/25 02:47:46;;;;;;;8.63;3.25;;;;;;;6.09;100.00;100023.81;6276751;22;20008;-76
2023/03/25 02:50:16;;;;;;;9.20;2.60;;;;;;;6.56;100.00;100093.72;6277139;22;20058;-75
2023/03/25 02:52:51;;;;;;;9.73;2.40;;;;;;;7.10;100.00;100170.16;6277203;22;20003;-72
2023/03/25 02:55:20;;;;;;;11.35;2.60;;;;;;;7.15;100.00;100166.38;6277126;22;20021;-73
2023/03/25 02:57:51;;;;;;;10.63;2.50;;;;;;;7.20;100.00;100168.69;6276879;22;20031;-75
2023/03/25 03:00:20;;;;;;;7.18;2.30;;;;;;;7.06;100.00;100136.09;6277025;22;20003;-77
2023/03/25 03:03:03;;;;;;;9.98;2.42;;;;;;;7.20;100.00;100148.13;6276948;22;19999;-75
2023/03/25 03:05:34;;;;;;;7.97;2.47;;;;;;;7.24;100.00;100154.72;6277265;22;20034;-75
2023/03/25 03:08:26;;;;;;;8.38;2.67;;;;;;;7.13;100.00;100149.41;6276381;22;20140;-72
2023/03/25 03:11:10;;;;;;;8.45;2.10;;;;;;;7.17;100.00;100161.13;6275533;22;20059;-75
2023/03/25 03:14:25;;;;;;;9.30;2.40;;;;;;;7.11;100.00;100159.78;6277365;22;20038;-77
2023/03/25 03:17:16;;;;;;;10.90;2.50;;;;;;;7.12;100.00;100165.75;6213502;23;20004;-75
2023/03/25 03:19:52;;;;;;;8.07;2.20;;;;;;;7.15;100.00;100166.38;6213244;23;20005;-76
2023/03/25 03:22:35;;;;;;;10.25;2.35;;;;;;;7.19;100.00;100165.28;6213447;23;20062;-76
2023/03/25 03:25:40;;;;;;;7.60;2.40;;;;;;;7.18;100.00;100161.06;6213158;23;20000;-77
2023/03/25 03:28:05;;;;;;;10.65;3.10;;;;;;;7.08;100.00;100177.09;6124112;23;20028;-76
2023/03/25 03:30:58;;;;;;;12.68;2.83;;;;;;;6.99;100.00;100163.06;6123950;23;20436;-76
2023/03/25 03:33:46;;;;;;;7.68;2.67;;;;;;;6.87;100.00;100163.75;6123688;23;20010;-75
2023/03/25 03:36:19;;;;;;;11.27;3.83;;;;;;;6.77;100.00;100160.91;6124006;23;20028;-77
2023/03/25 03:38:48;;;;;;;10.18;2.92;;;;;;;6.82;100.00;100176.06;6124371;23;20016;-74
2023/03/25 03:41:19;;;;;;;9.10;2.80;;;;;;;6.87;100.00;100171.47;6123443;23;20017;-73
2023/03/25 03:43:48;;;;;;;13.48;3.28;;;;;;;6.80;100.00;100159.94;6124178;23;20101;-75
2023/03/25 03:46:23;;;;;;;11.00;2.67;;;;;;;6.89;100.00;100173.06;6123870;23;20016;-76
2023/03/25 03:48:54;;;;;;;10.48;2.65;;;;;;;6.79;100.00;100142.88;6123211;23;20018;-75
2023/03/25 03:51:28;;;;;;;11.55;3.00;;;;;;;6.95;100.00;100165.91;6147928;23;20022;-74
2023/03/25 03:54:04;;;;;;;14.43;3.80;;;;;;;6.80;100.00;100135.09;6153357;23;20016;-75
2023/03/25 03:56:52;;;;;;;17.40;3.72;;;;;;;6.99;100.00;100155.38;6153422;23;20033;-76
2023/03/25 03:59:33;;;;;;;11.73;2.47;;;;;;;6.90;100.00;100143.06;6153253;23;20009;-76
2023/03/25 04:02:02;;;;;;;8.88;2.20;;;;;;;6.92;100.00;100148.13;6153402;23;20039;-76
2023/03/25 04:04:28;;;;;;;9.98;2.50;;;;;;;6.98;100.00;100142.59;6255503;22;20372;-77
2023/03/25 04:07:00;;;;;;;11.40;2.50;;;;;;;6.98;100.00;100138.31;6276632;22;20007;-77
2023/03/25 04:09:53;;;;;;;10.93;2.45;;;;;;;7.13;100.00;100152.81;6276649;22;20003;-76
2023/03/25 04:12:34;;;;;;;9.32;2.60;;;;;;;7.15;100.00;100162.97;6276965;22;20004;-77
2023/03/25 04:15:00;;;;;;;11.10;2.80;;;;;;;7.18;100.00;100160.25;6276427;22;20440;-77
2023/03/25 04:17:28;;;;;;;10.00;2.10;;;;;;;7.19;100.00;100156.75;6276801;22;20004;-76
2023/03/25 04:19:54;;;;;;;8.50;2.38;;;;;;;7.12;100.00;100142.63;6276492;22;20024;-77
2023/03/25 04:22:20;;;;;;;9.80;2.30;;;;;;;7.22;100.00;100155.75;6276251;22;20000;-76
2023/03/25 04:24:48;;;;;;;12.88;2.60;;;;;;;7.23;100.00;100155.66;6276688;22;20003;-77
2023/03/25 04:27:17;;;;;;;12.13;3.00;;;;;;;7.18;100.00;100157.69;6276923;22;20011;-77
2023/03/25 04:29:43;;;;;;;9.90;2.30;;;;;;;7.22;100.00;100159.13;6276330;22;20010;-76
2023/03/25 04:32:11;;;;;;;8.90;2.13;;;;;;;7.24;100.00;100159.03;6276137;22;20004;-78
2023/03/25 04:34:36;;;;;;;6.75;2.03;;;;;;;7.19;100.00;100144.75;6276116;22;19999;-78
2023/03/25 04:37:02;;;;;;;9.32;2.10;;;;;;;7.28;100.00;100169.06;6276791;22;20011;-78
2023/03/25 04:39:28;;;;;;;9.75;2.28;;;;;;;7.22;100.00;100155.75;6276870;22;20030;-78
2023/03/25 04:41:55;;;;;;;9.52;1.83;;;;;;;7.25;100.00;100155.56;6276901;22;20004;-77
2023/03/25 04:44:22;;;;;;;9.02;2.53;;;;;;;7.32;100.00;100152.53;6276502;22;20063;-78
2023/03/25 04:46:47;;;;;;;9.45;2.13;;;;;;;7.32;100.00;100178.22;6276742;22;20000;-77
2023/03/25 04:49:19;;;;;;;9.65;2.03;;;;;;;7.31;100.00;100171.44;6275985;22;20011;-75
2023/03/25 04:51:48;;;;;;;8.07;2.33;;;;;;;7.18;100.00;100155.94;6276818;22;20007;-76
2023/03/25 04:54:13;;;;;;;8.95;2.30;;;;;;;7.22;100.00;100161.69;6278698;22;19999;-76
2023/03/25 04:56:39;;;;;;;8.55;2.40;;;;;;;7.10;100.00;100147.84;6278819;22;20094;-77
2023/03/25 04:59:05;;;;;;;7.90;2.13;;;;;;;7.23;100.00;100170.22;6278275;22;20007;-76
2023/03/25 05:01:31;;;;;;;4.90;1.63;;;;;;;7.12;100.00;100151.16;6278395;22;20078;-77
2023/03/25 05:04:03;;;;;;;9.90;2.25;;;;;;;7.06;100.00;100143.81;6277886;22;20051;-78
2023/03/25 05:06:33;;;;;;;9.07;2.05;;;;;;;7.12;100.00;100174.25;6278380;22;20019;-78
2023/03/25 05:09:03;;;;;;;7.80;2.13;;;;;;;7.02;100.00;100180.03;6278209;22;20008;-78
2023/03/25 05:11:30;;;;;;;7.15;2.35;;;;;;;6.98;100.00;100176.81;6278329;22;20011;-76
2023/03/25 05:13:55;;;;;;;10.80;2.55;;;;;;;7.00;100.00;100175.00;6278152;22;20023;-76
2023/03/25 05:16:21;;;;;;;6.38;2.03;;;;;;;7.02;100.00;100174.91;6278143;22;20000;-77
2023/03/25 05:18:47;;;;;;;8.05;2.10;;;;;;;6.98;100.00;100179.41;6277882;22;20007;-75
2023/03/25 05:21:12;;;;;;;10.50;2.40;;;;;;;6.81;100.00;100161.56;6278385;22;20008;-77
2023/03/25 05:23:37;;;;;;;9.70;2.00;;;;;;;6.89;100.00;100185.06;6278174;22;20004;-78
2023/03/25 05:26:03;;;;;;;10.00;2.33;;;;;;;6.84;100.00;100182.75;6278177;22;19999;-78
2023/03/25 05:28:29;;;;;;;8.43;2.40;;;;;;;6.83;100.00;100177.69;6278425;22;20386;-78
2023/03/25 05:30:55;;;;;;;11.57;2.30;;;;;;;6.78;100.00;100183.09;6277714;22;20012;-77
2023/03/25 05:33:21;;;;;;;10.05;2.45;;;;;;;6.82;100.00;100173.50;6277695;22;20084;-78
2023/03/25 05:35:46;;;;;;;10.93;2.70;;;;;;;6.84;100.00;100185.31;6278050;22;20441;-78
2023/03/25 05:38:17;;;;;;;9.48;2.60;;;;;;;6.75;100.00;100167.06;6278082;22;20430;-74
2023/03/25 05:40:44;;;;;;;9.70;2.80;;;;;;;6.68;100.00;100158.03;6277620;22;20057;-77
2023/03/25 05:43:09;;;;;;;11.13;2.90;;;;;;;6.87;100.00;100184.28;6277744;22;20063;-76
2023/03/25 05:45:34;;;;;;;12.27;2.85;;;;;;;6.85;100.00;100183.56;6277737;22;20083;-76
2023/03/25 05:48:01;;;;;;;7.82;2.42;;;;;;;6.85;100.00;100181.81;6277373;22;20008;-76
2023/03/25 05:50:27;;;;;;;14.52;3.45;;;;;;;6.50;100.00;100132.56;6277515;22;20007;-75
2023/03/25 05:52:54;;;;;;;8.35;2.92;;;;;;;6.78;100.00;100175.38;6277903;22;20069;-78
2023/03/25 05:55:21;;;;;;;11.27;2.80;;;;;;;6.88;100.00;100194.50;6277569;22;20003;-77
2023/03/25 05:57:47;;;;;;;11.30;3.15;;;;;;;6.94;100.00;100197.63;6277609;22;20011;-76
2023/03/25 06:00:26;;;;;;;11.52;3.00;;;;;;;7.00;100.00;100208.38;6277896;22;20007;-75
2023/03/25 06:02:51;;;;;;;11.95;2.67;;;;;;;6.97;100.00;100205.94;6250322;22;19999;-73
2023/03/25 06:05:22;;;;;;;11.18;2.58;;;;;;;6.74;100.00;100173.09;6277596;22;20000;-76
2023/03/25 06:07:54;;;;;;;8.55;2.35;;;;;;;6.73;100.00;100168.88;6277786;22;20000;-76
2023/03/25 06:10:21;;;;;;;9.30;2.67;;;;;;;6.72;100.00;100173.19;6277463;22;20031;-76
2023/03/25 06:12:47;;;;;;;10.30;2.90;;;;;;;6.93;100.00;100212.19;6277461;22;20436;-76
2023/03/25 06:15:20;;;;;;;13.43;3.67;;;;;;;6.97;100.00;100212.81;6277571;22;20004;-77
2023/03/25 06:17:46;;;;;;;14.27;3.50;;;;;;;7.00;100.00;100217.81;6277347;22;20069;-76
2023/03/25 06:20:15;;;;;;;13.20;3.20;;;;;;;7.01;100.00;100217.72;6277427;22;20000;-76
2023/03/25 06:22:44;;;;;;;13.25;3.13;;;;;;;6.99;100.00;100208.44;6277129;22;20030;-76
2023/03/25 06:25:19;;;;;;;13.70;3.75;;;;;;;7.09;100.00;100212.13;6277578;22;20336;-76
2023/03/25 06:27:47;;;;;;;13.60;3.00;;;;;;;7.12;100.00;100207.63;6277367;22;19999;-78
2023/03/25 06:30:15;;;;;;;12.57;3.20;;;;;;;7.06;100.00;100202.84;6276952;22;20010;-78
2023/03/25 06:32:40;;;;;;;8.35;2.83;;;;;;;6.99;100.00;100178.47;6277737;22;19999;-78
2023/03/25 06:35:08;;;;;;;11.90;2.78;;;;;;;7.14;100.00;100210.94;6277789;22;20018;-78
2023/03/25 06:37:34;;;;;;;8.95;2.50;;;;;;;7.25;100.00;100212.88;6249742;22;20003;-78
2023/03/25 06:39:59;;;;;;;10.15;2.80;;;;;;;7.40;100.00;100216.28;6277661;22;20014;-76
2023/03/25 06:42:28;;;;;;;11.07;2.65;;;;;;;7.47;100.00;100209.84;6277566;22;20000;-78
2023/03/25 06:44:54;;;;;;;10.90;2.60;;;;;;;7.44;100.00;100187.75;6276995;22;20029;-77
2023/03/25 06:47:20;;;;;;;10.90;2.65;;;;;;;7.62;100.00;100224.34;6277283;22;20003;-77
2023/03/25 06:49:45;;;;;;;8.88;2.33;;;;;;;7.71;100.00;100230.69;6276999;22;20011;-78
2023/03/25 06:52:11;;;;;;;11.15;2.53;;;;;;;7.73;100.00;100224.53;6276952;22;20000;-78
2023/03/25 06:54:37;;;;;;;9.32;2.38;;;;;;;7.63;100.00;100209.75;6277556;22;20377;-77
2023/03/25 06:57:03;;;;;;;10.55;2.67;;;;;;;7.79;100.00;100231.06;6277237;22;20008;-78
2023/03/25 06:59:28;;;;;;;9.50;2.75;;;;;;;7.72;100.00;100220.31;6277384;22;20011;-75
2023/03/25 07:01:53;;;;;;;14.07;3.15;;;;;;;7.86;100.00;100229.75;6277116;22;19999;-74
2023/03/25 07:04:19;;;;;;;12.65;3.22;;;;;;;7.90;100.00;100236.34;6277050;22;20008;-77
2023/03/25 07:06:44;;;;;;;12.02;2.90;;;;;;;7.77;99.32;100202.06;6249353;22;20056;-78
2023/03/25 07:09:10;;;;;;;10.20;2.90;;;;;;;8.05;99.93;100232.00;6277122;22;20003;-78
2023/03/25 07:11:35;;;;;;;14.65;3.22;;;;;;;8.10;98.37;100226.59;6277011;22;20000;-79
2023/03/25 07:14:00;;;;;;;8.52;3.25;;;;;;;8.15;99.20;100233.09;6276889;22;20091;-78
2023/03/25 07:16:26;;;;;;;9.23;2.95;;;;;;;8.17;97.62;100215.00;6277102;22;20000;-76
2023/03/25 07:18:53;;;;;;;13.13;4.05;;;;;;;8.16;97.46;100219.34;6276819;22;19999;-77
2023/03/25 07:21:19;;;;;;;13.88;3.67;;;;;;;8.14;98.15;100202.31;6276563;22;20008;-78
2023/03/25 07:23:44;;;;;;;11.48;2.88;;;;;;;8.65;97.05;100234.22;6276515;22;19999;-77
2023/03/25 07:26:12;;;;;;;11.27;3.03;;;;;;;8.74;95.08;100230.25;6276898;22;20133;-77
2023/03/25 07:28:37;;;;;;;11.90;2.92;;;;;;;8.61;96.33;100220.75;6276765;22;20011;-77
2023/03/25 07:31:11;;;;;;;11.35;2.92;;;;;;;8.57;98.25;100237.31;6249538;22;20011;-78
2023/03/25 07:33:37;;;;;;;11.90;2.72;;;;;;;8.32;100.00;100244.91;6277116;22;20014;-78
2023/03/25 07:36:04;;;;;;;13.43;3.17;;;;;;;8.11;100.00;100234.22;6277003;22;19999;-77
2023/03/25 07:38:30;;;;;;;13.85;2.90;;;;;;;7.99;100.00;100245.25;6275142;22;20035;-74
2023/03/25 07:40:55;;;;;;;15.48;3.90;;;;;;;7.74;100.00;100221.03;6277155;22;20038;-76
2023/03/25 07:43:21;;;;;;;16.70;3.42;;;;;;;7.88;100.00;100243.34;6277071;22;20465;-76
2023/03/25 07:45:49;;;;;;;14.90;3.17;;;;;;;7.63;100.00;100222.63;6276553;22;20433;-70
2023/03/25 07:48:15;;;;;;;12.88;3.22;;;;;;;7.85;100.00;100253.78;6276305;22;20008;-78
2023/03/25 07:50:42;;;;;;;12.23;3.22;;;;;;;7.72;100.00;100227.19;6276560;22;20325;-76
2023/03/25 07:53:08;;;;;;;15.88;3.78;;;;;;;7.94;100.00;100253.25;6276032;22;20010;-76
2023/03/25 07:55:33;;;;;;;14.40;3.13;;;;;;;7.92;100.00;100255.09;6275959;22;20035;-77
2023/03/25 07:58:00;;;;;;;17.63;3.95;;;;;;;7.89;100.00;100232.16;6276165;22;20045;-75
2023/03/25 08:00:26;;;;;;;13.75;3.42;;;;;;;8.12;100.00;100251.28;6276483;22;20000;-77
2023/03/25 08:02:52;;;;;;;15.60;3.30;;;;;;;8.27;100.00;100260.63;6276249;22;20418;-79
2023/03/25 08:05:20;;;;;;;15.15;3.78;;;;;;;8.07;100.00;100234.50;6276539;22;20008;-77
2023/03/25 08:07:51;;;;;;;16.88;3.70;;;;;;;8.10;100.00;100253.13;6276000;22;20483;-78
2023/03/25 08:10:17;;;;;;;19.27;3.90;;;;;;;8.20;100.00;100268.81;6276117;22;20057;-77
2023/03/25 08:12:43;;;;;;;15.75;2.97;;;;;;;8.21;100.00;100267.91;6276083;22;20003;-77
2023/03/25 08:15:10;;;;;;;17.65;4.68;;;;;;;8.21;100.00;100276.44;6276090;22;20057;-75
2023/03/25 08:17:36;;;;;;;16.85;3.30;;;;;;;7.99;100.00;100271.78;6276374;22;20000;-76
2023/03/25 08:20:04;;;;;;;11.82;3.22;;;;;;;7.82;100.00;100274.56;6276168;22;20321;-70
2023/03/25 08:22:30;;;;;;;13.88;3.50;;;;;;;7.78;100.00;100292.84;6276657;22;20053;-77
2023/03/25 08:24:55;;;;;;;15.57;3.47;;;;;;;7.85;100.00;100291.53;6276118;22;20012;-77
2023/03/25 08:27:21;;;;;;;14.80;3.63;;;;;;;7.93;100.00;100286.75;6278142;22;20007;-80
2023/03/25 08:29:53;;;;;;;17.77;4.05;;;;;;;8.10;100.00;100283.16;6280005;22;20014;-74
2023/03/25 08:32:19;;;;;;;17.10;3.67;;;;;;;8.19;100.00;100293.72;6279907;22;20026;-76
2023/03/25 08:34:44;;;;;;;19.30;3.92;;;;;;;8.23;100.00;100294.34;6252276;22;20410;-77
2023/03/25 08:37:10;;;;;;;15.15;4.57;;;;;;;7.96;100.00;100290.00;6279829;22;20375;-75
2023/03/25 08:39:38;;;;;;;17.48;3.85;;;;;;;7.92;100.00;100297.97;6279358;22;20007;-77
2023/03/25 08:42:08;;;;;;;15.07;3.78;;;;;;;7.77;100.00;100286.88;6279917;22;20000;-75
2023/03/25 08:44:34;;;;;;;16.17;4.70;;;;;;;7.85;100.00;100301.81;6279887;22;20016;-74
2023/03/25 08:46:59;;;;;;;17.45;4.43;;;;;;;7.61;100.00;100263.81;6227406;22;20008;-80
2023/03/25 08:49:25;;;;;;;22.58;4.68;;;;;;;7.83;100.00;100278.78;6279260;22;20008;-77
2023/03/25 08:51:50;;;;;;;15.43;4.13;;;;;;;8.24;100.00;100304.53;6279479;22;20012;-79
2023/03/25 08:54:16;;;;;;;16.30;4.30;;;;;;;8.37;100.00;100293.53;6226732;22;20023;-80
2023/03/25 08:56:41;;;;;;;19.30;4.55;;;;;;;8.33;100.00;100301.41;6279218;22;20093;-74
2023/03/25 08:59:06;;;;;;;13.43;3.95;;;;;;;8.27;100.00;100262.38;6279619;22;20033;-79
2023/03/25 09:01:32;;;;;;;12.00;4.03;;;;;;;8.85;100.00;100290.44;6252529;22;20003;-78
2023/03/25 09:03:57;;;;;;;20.02;3.92;;;;;;;9.14;100.00;100275.66;6279723;22;20010;-76
2023/03/25 09:06:23;;;;;;;15.38;4.28;;;;;;;9.46;100.00;100294.13;6279354;22;20075;-77
2023/03/25 09:08:48;;;;;;;20.85;3.88;;;;;;;9.58;100.00;100276.19;6279590;22;20007;-78
2023/03/25 09:11:14;;;;;;;19.73;5.50;;;;;;;9.56;100.00;100285.78;6279696;22;20035;-78
2023/03/25 09:13:40;;;;;;;18.05;4.50;;;;;;;9.65;100.00;100282.59;6279498;22;20000;-74
2023/03/25 09:16:06;;;;;;;14.60;4.10;;;;;;;9.93;100.00;100284.09;6280069;22;20007;-79
2023/03/25 09:18:32;;;;;;;17.15;5.28;;;;;;;10.07;100.00;100291.72;6279860;22;20079;-73
2023/03/25 09:20:58;;;;;;;15.05;4.63;;;;;;;10.01;100.00;100281.81;6279964;22;20380;-81
2023/03/25 09:23:24;;;;;;;19.02;4.95;;;;;;;10.18;100.00;100286.63;6279843;22;20008;-82
2023/03/25 09:25:49;;;;;;;16.60;4.40;;;;;;;10.13;98.50;100262.06;6279622;22;20511;-76
2023/03/25 09:28:15;;;;;;;16.35;4.30;;;;;;;10.25;96.79;100285.31;6279281;22;20027;-80
2023/03/25 09:30:40;;;;;;;19.92;3.92;;;;;;;10.14;96.93;100258.59;6279163;22;20336;-80
2023/03/25 09:33:06;;;;;;;15.50;4.80;;;;;;;10.47;96.19;100283.78;6279495;22;20015;-78
2023/03/25 09:35:31;;;;;;;16.33;4.15;;;;;;;10.61;94.22;100302.50;6278281;22;20007;-79
2023/03/25 09:37:57;;;;;;;16.70;4.28;;;;;;;10.75;94.39;100287.81;6250848;22;20391;-81
2023/03/25 09:40:22;;;;;;;18.40;4.63;;;;;;;10.75;92.29;100288.63;6277792;22;20090;-75
2023/03/25 09:43:07;;;;;;;17.27;5.18;;;;;;;10.77;93.64;100281.59;6277932;22;20011;-77
2023/03/25 09:45:40;;;;;;;18.42;4.57;;;;;;;10.82;93.05;100286.44;6277722;22;20059;-74
2023/03/25 09:48:17;;;;;;;15.75;5.13;;;;;;;10.65;92.00;100300.56;6277642;22;20039;-79
2023/03/25 09:50:44;;;;;;;18.45;4.18;;;;;;;10.32;94.29;100302.03;6277701;22;20035;-80
2023/03/25 09:53:09;;;;;;;18.42;4.80;;;;;;;10.07;95.95;100300.28;6277736;22;20007;-75
2023/03/25 09:55:40;;;;;;;18.55;4.03;;;;;;;10.08;95.82;100303.69;6277522;22;20003;-81
2023/03/25 09:58:20;;;;;;;19.00;4.90;;;;;;;10.04;97.47;100317.75;6277542;22;20099;-80
2023/03/25 10:00:50;;;;;;;15.88;3.47;;;;;;;9.68;99.54;100308.97;6277994;22;20003;-80
2023/03/25 10:04:03;;;;;;;17.23;4.40;;;;;;;9.35;100.00;100296.63;6277890;22;20057;-76
2023/03/25 10:06:35;;;;;;;16.83;5.43;;;;;;;8.96;100.00;100288.91;6276648;22;20126;-80
2023/03/25 10:09:03;;;;;;;20.77;6.10;;;;;;;8.93;100.00;100312.28;6277559;22;19999;-81
2023/03/25 10:11:38;;;;;;;18.75;5.97;;;;;;;8.91;100.00;100323.50;6277416;22;20010;-80
2023/03/25 10:14:10;;;;;;;17.20;5.70;;;;;;;9.04;100.00;100314.97;6277141;22;20050;-73
2023/03/25 10:17:24;;;;;;;19.63;5.88;;;;;;;9.15;100.00;100313.38;6277561;22;20014;-80
2023/03/25 10:19:54;;;;;;;23.17;5.63;;;;;;;9.59;100.00;100319.91;6214251;23;20005;-80
2023/03/25 10:22:35;;;;;;;23.58;5.68;;;;;;;9.86;100.00;100306.09;6213861;23;20127;-73
2023/03/25 10:25:08;;;;;;;21.75;5.30;;;;;;;10.00;100.00;100334.34;6213726;23;20015;-74
2023/03/25 10:27:41;;;;;;;14.63;5.05;;;;;;;9.64;100.00;100317.03;6213699;23;20032;-74
2023/03/25 10:30:26;;;;;;;15.50;4.00;;;;;;;9.33;100.00;100337.09;6213828;23;20012;-80
2023/03/25 10:32:57;;;;;;;20.02;5.25;;;;;;;9.15;100.00;100346.03;6214242;23;20009;-75
2023/03/25 10:35:29;;;;;;;19.98;5.97;;;;;;;9.23;100.00;100345.53;6188454;23;20473;-73
2023/03/25 10:38:01;;;;;;;20.52;6.40;;;;;;;9.35;100.00;100337.84;6213979;23;20020;-75
2023/03/25 10:40:37;;;;;;;18.55;5.38;;;;;;;9.51;100.00;100344.53;6213563;23;20004;-74
2023/03/25 10:43:36;;;;;;;15.02;5.20;;;;;;;9.48;100.00;100351.56;6213649;23;20005;-78
2023/03/25 10:46:19;;;;;;;15.95;4.75;;;;;;;9.34;100.00;100332.75;6213714;23;20012;-72
2023/03/25 10:48:46;;;;;;;18.10;4.75;;;;;;;9.29;100.00;100327.09;6213628;23;20069;-73
2023/03/25 10:51:23;;;;;;;17.42;4.72;;;;;;;9.49;100.00;100326.59;6213619;23;20346;-72
2023/03/25 10:53:51;;;;;;;21.02;5.35;;;;;;;9.68;100.00;100349.41;6213073;23;20104;-72
2023/03/25 10:56:25;;;;;;;20.15;4.95;;;;;;;9.72;100.00;100340.53;6246207;22;20114;-73
2023/03/25 10:58:53;;;;;;;20.73;5.93;;;;;;;9.61;100.00;100317.22;6249702;22;20007;-71
2023/03/25 11:01:26;;;;;;;21.13;5.63;;;;;;;9.83;100.00;100338.06;6276255;22;20028;-71
2023/03/25 11:03:52;;;;;;;17.02;4.70;;;;;;;9.88;100.00;100332.59;6276925;22;20372;-73
2023/03/25 11:06:25;;;;;;;25.52;6.28;;;;;;;9.89;100.00;100317.00;6277320;22;20088;-79
2023/03/25 11:09:12;;;;;;;21.30;4.57;;;;;;;10.33;100.00;100339.78;6276906;22;20003;-73
2023/03/25 11:11:38;;;;;;;19.38;4.00;;;;;;;10.52;97.06;100343.66;6276721;22;20484;-75
2023/03/25 11:14:04;;;;;;;17.90;4.63;;;;;;;10.50;95.32;100330.03;6277256;22;20006;-72
2023/03/25 11:16:35;;;;;;;18.98;4.60;;;;;;;10.37;96.34;100330.06;6277074;22;20004;-74
2023/03/25 11:19:02;;;;;;;15.88;3.25;;;;;;;10.46;94.65;100351.84;6276918;22;19999;-73
2023/03/25 11:21:34;;;;;;;16.45;3.22;;;;;;;10.45;94.33;100324.38;6277079;22;20000;-72
2023/03/25 11:24:00;;;;;;;14.68;2.67;;;;;;;10.58;88.58;100338.88;6276710;22;20008;-74
2023/03/25 11:26:44;;;;;;;11.77;2.72;;;;;;;10.56;86.36;100312.34;6278257;22;20071;-78
2023/03/25 11:29:18;;;;;;;10.00;2.22;;;;;;;10.91;87.32;100356.34;6249090;22;20123;-73
2023/03/25 11:31:54;;;;;;;12.98;2.13;;;;;;;11.00;85.92;100359.16;6247912;22;20062;-75
2023/03/25 11:34:21;;;;;;;12.65;2.38;;;;;;;11.07;82.67;100356.03;6276875;22;20000;-74